Flight Track Log - Related Links

Times and Time Zones

All times are in EDT time to prevent confusion due to time zone crossing. See the N6711L flight status page for this flight to view local times or setup timezone preferences in your user account.

Time Position Orientation Groundspeed Altitude Reporting Facility
EDT Latitude Longitude Course Direction KTS MPH feet Rate Location/Type
Thu 02:25:44 PM 26.0997 -81.7836 163° South 109 125 2,000  Level Miami Center
Thu 02:26:46 PM 26.0675 -81.7756 167° South 118 136 2,900 919 Climbing Miami Center
Thu 02:27:48 PM 26.0283 -81.7708 174° South 124 143 3,900 960 Climbing Miami Center
Thu 02:28:51 PM 25.9900 -81.7681 176° South 125 144 4,900 960 Climbing Miami Center
Thu 02:29:53 PM 25.9531 -81.7675 179° South 127 146 5,900 1,016 Climbing Miami Center
Thu 02:30:00 PM 25.9836 -81.6418 156° South  Level FlightAware Approximate
Thu 02:30:55 PM 25.9128 -81.7689 182° South 135 155 7,000  Level Miami Center
Thu 02:31:00 PM 25.9460 -81.6264 163° South  Level FlightAware Approximate
Thu 02:31:57 PM 25.8661 -81.7683 179° South 157 181 7,000  Level Miami Center
Thu 02:33:00 PM 25.8192 -81.7681 180° South 168 193 7,100 48 Climbing Miami Center
Thu 02:34:02 PM 25.7758 -81.7675 179° South 172 198 7,100  Level Miami Center
Thu 02:35:04 PM 25.7189 -81.7669 179° South 173 199 7,100 48 Level Miami Center
Thu 02:36:06 PM 25.6764 -81.7678 181° South 173 199 7,200 48 Climbing Miami Center
Thu 02:37:08 PM 25.6178 -81.7697 182° South 174 200 7,200  Level Miami Center
Thu 02:38:11 PM 25.5697 -81.7681 178° South 173 199 7,200 -240 Level Miami Center
Thu 02:39:13 PM 25.5200 -81.7678 180° South 174 200 6,700 -339 Descending Miami Center
Thu 02:40:15 PM 25.4692 -81.7664 179° South 179 206 6,500 -435 Descending Miami Center
Thu 02:41:17 PM 25.4106 -81.7658 180° South 179 206 5,800 -581 Descending Miami Center
Thu 02:42:19 PM 25.3567 -81.7667 181° South 183 211 5,300 -532 Descending Miami Center
Thu 02:43:21 PM 25.2992 -81.7658 179° South 189 217 4,700 -532 Descending Miami Center
Thu 02:44:23 PM 25.2492 -81.7653 179° South 185 213 4,200 -240 Descending Miami Center
Thu 02:45:26 PM 25.2008 -81.7644 179° South 184 212 4,200 -48 Level Miami Center
Thu 02:46:28 PM 25.1528 -81.7644 180° South 172 198 4,100 -97 Descending Miami Center
Thu 02:47:30 PM 25.1061 -81.7642 180° South 170 196 4,000 -48 Descending Miami Center
Thu 02:48:32 PM 25.0497 -81.7631 179° South 170 196 4,000 -290 Level Miami Center
Thu 02:49:34 PM 25.0011 -81.7475 164° South 176 203 3,400 -435 Descending Miami Center
Thu 02:50:36 PM 24.9511 -81.7319 164° South 186 214 3,100 -339 Descending Miami Center
Thu 02:51:38 PM 24.9008 -81.7167 165° South 186 214 2,700 -336 Descending Miami Center
Thu 02:52:41 PM 24.8531 -81.7017 164° South 185 213 2,400 -336 Descending Miami Center
Thu 02:53:43 PM 24.8061 -81.6897 167° South 179 206 2,000 -387 Descending Miami Center
Thu 02:54:45 PM 24.7492 -81.6842 175° South 176 203 1,600 -145 Descending Miami Center
Thu 02:55:47 PM 24.7061 -81.6789 174° South 167 192 1,700 48 Climbing Miami Center
Thu 02:56:49 PM 24.6619 -81.6744 175° South 162 186 1,700  Level Miami Center
Thu 02:57:51 PM 24.6178 -81.6686 173° South 162 186 1,700 -97 Level Miami Center
Thu 02:58:53 PM 24.5789 -81.6919 209° Southwest 160 184 1,500 -432 Descending Miami Center
Thu 02:59:56 PM 24.5569 -81.7236 233° Southwest 141 162 800 -624 Descending Miami Center
Thu 03:00:58 PM 24.5564 -81.7556 269° West 121 139 200 -581 Descending Miami Center
Thu 03:02:00 PM 24.5500 -81.7500 180° South  Level FlightAware Approximate

Login

Don't have an account? Register now (free) for customized features, flight alerts, and more!